Time;durP1;ratioP1;P1;durP2;ratioP2;P2;SDS_P1;SDS_P2;PMS_P1;PMS_P2;Temp;Humidity;BMP_temperature;BMP_pressure;BME280_temperature;BME280_humidity;BME280_pressure;Samples;Min_cycle;Max_cycle;Signal;HPM_P1;HPM_P2
2023/07/28 00:01:28;;;;;;;8.90;6.88;;;;;;;;;;5030543;28;20496;-77
2023/07/28 00:03:54;;;;;;;7.85;6.88;;;;;;;;;;5030423;28;20473;-78
2023/07/28 00:06:19;;;;;;;7.28;6.38;;;;;;;;;;5030450;28;20036;-76
2023/07/28 00:08:44;;;;;;;10.05;6.32;;;;;;;;;;5014154;28;20079;-77
2023/07/28 00:11:12;;;;;;;7.95;6.60;;;;;;;;;;5031819;28;20519;-77
2023/07/28 00:13:38;;;;;;;10.52;6.80;;;;;;;;;;5030677;28;20481;-77
2023/07/28 00:16:04;;;;;;;8.30;6.47;;;;;;;;;;5030546;28;20026;-77
2023/07/28 00:18:29;;;;;;;9.02;6.70;;;;;;;;;;5024871;28;20055;-77
2023/07/28 00:20:55;;;;;;;6.90;5.82;;;;;;;;;;5031818;28;20032;-76
2023/07/28 00:23:20;;;;;;;7.45;6.57;;;;;;;;;;5031687;28;20026;-76
2023/07/28 00:25:46;;;;;;;8.98;6.68;;;;;;;;;;5031687;28;20034;-76
2023/07/28 00:28:11;;;;;;;7.45;6.50;;;;;;;;;;5030528;28;20028;-76
2023/07/28 00:30:36;;;;;;;7.97;6.10;;;;;;;;;;5032546;28;20535;-77
2023/07/28 00:33:02;;;;;;;7.95;6.50;;;;;;;;;;5033951;28;20043;-76
2023/07/28 00:35:27;;;;;;;10.63;6.35;;;;;;;;;;5034842;28;20056;-77
2023/07/28 00:37:52;;;;;;;8.48;6.85;;;;;;;;;;5033978;28;20108;-76
2023/07/28 00:40:18;;;;;;;8.15;6.40;;;;;;;;;;5033977;28;20037;-77
2023/07/28 00:42:43;;;;;;;8.07;6.28;;;;;;;;;;5035007;28;20087;-77
2023/07/28 00:45:09;;;;;;;7.72;6.47;;;;;;;;;;5035198;28;20462;-77
2023/07/28 00:47:35;;;;;;;8.82;6.28;;;;;;;;;;5033801;28;20021;-77
2023/07/28 00:50:02;;;;;;;6.88;6.13;;;;;;;;;;5033589;28;20428;-76
2023/07/28 00:52:27;;;;;;;8.40;6.85;;;;;;;;;;5026737;28;20083;-78
2023/07/28 00:54:53;;;;;;;8.70;6.45;;;;;;;;;;5033679;28;20033;-76
2023/07/28 00:57:18;;;;;;;9.88;6.72;;;;;;;;;;5033442;28;20580;-77
2023/07/28 00:59:45;;;;;;;9.23;6.72;;;;;;;;;;5033599;28;20028;-76
2023/07/28 01:02:11;;;;;;;9.80;6.70;;;;;;;;;;5033468;28;20021;-76
2023/07/28 01:04:36;;;;;;;10.60;6.78;;;;;;;;;;5034469;28;20078;-78
2023/07/28 01:07:26;;;;;;;9.18;6.20;;;;;;;;;;5034562;28;20104;-77
2023/07/28 01:10:03;;;;;;;8.07;6.05;;;;;;;;;;5033626;28;20033;-77
2023/07/28 01:12:28;;;;;;;8.02;6.30;;;;;;;;;;5034117;28;20060;-77
2023/07/28 01:14:54;;;;;;;9.77;6.70;;;;;;;;;;5034611;28;20441;-76
2023/07/28 01:17:19;;;;;;;7.78;6.45;;;;;;;;;;5034436;28;20029;-76
2023/07/28 01:19:45;;;;;;;9.10;6.75;;;;;;;;;;5034561;28;20017;-76
2023/07/28 01:22:45;;;;;;;11.15;6.60;;;;;;;;;;5033109;28;20388;-76
2023/07/28 01:25:23;;;;;;;9.90;6.07;;;;;;;;;;5030651;28;20500;-77
2023/07/28 01:27:49;;;;;;;8.02;6.25;;;;;;;;;;5034289;28;20022;-76
2023/07/28 01:30:15;;;;;;;9.15;6.22;;;;;;;;;;5034140;28;20451;-77
2023/07/28 01:32:41;;;;;;;10.18;6.88;;;;;;;;;;5032764;28;20029;-76
2023/07/28 01:35:07;;;;;;;8.10;6.35;;;;;;;;;;5034215;28;20501;-77
2023/07/28 01:37:32;;;;;;;9.57;6.88;;;;;;;;;;5032868;28;20481;-77
2023/07/28 01:39:57;;;;;;;9.10;6.28;;;;;;;;;;5032643;28;20041;-76
2023/07/28 01:42:23;;;;;;;9.05;6.75;;;;;;;;;;5031529;28;20494;-77
2023/07/28 01:44:50;;;;;;;7.97;5.47;;;;;;;;;;5032631;28;20033;-76
2023/07/28 01:47:15;;;;;;;7.63;5.68;;;;;;;;;;5032596;28;20370;-79
2023/07/28 01:49:40;;;;;;;8.40;6.70;;;;;;;;;;5032520;28;20030;-77
2023/07/28 01:52:06;;;;;;;9.40;6.45;;;;;;;;;;5033777;28;20112;-78
2023/07/28 01:54:31;;;;;;;9.32;6.60;;;;;;;;;;5039578;28;20036;-77
2023/07/28 01:56:57;;;;;;;8.63;6.05;;;;;;;;;;5032653;28;20021;-77
2023/07/28 01:59:22;;;;;;;9.90;6.75;;;;;;;;;;5033339;28;20025;-76
2023/07/28 02:01:47;;;;;;;12.07;6.38;;;;;;;;;;5032479;28;20033;-76
2023/07/28 02:04:13;;;;;;;7.68;5.55;;;;;;;;;;5033361;28;20491;-77
2023/07/28 02:06:38;;;;;;;8.23;5.88;;;;;;;;;;5032208;28;20071;-88
2023/07/28 02:09:04;;;;;;;8.13;6.00;;;;;;;;;;5032197;28;20029;-88
2023/07/28 02:11:29;;;;;;;8.50;5.70;;;;;;;;;;5033644;28;20996;-88
2023/07/28 02:13:55;;;;;;;9.13;6.05;;;;;;;;;;5033611;28;20030;-89
2023/07/28 02:16:20;;;;;;;12.38;6.38;;;;;;;;;;5030316;28;20385;-88
2023/07/28 02:18:45;;;;;;;9.75;5.75;;;;;;;;;;5033404;28;20029;-89
2023/07/28 02:21:11;;;;;;;9.25;6.00;;;;;;;;;;5032083;28;20052;-89
2023/07/28 02:23:36;;;;;;;7.00;5.00;;;;;;;;;;5032424;28;20488;-87
2023/07/28 02:26:01;;;;;;;9.95;5.53;;;;;;;;;;5033258;28;20378;-88
2023/07/28 02:28:28;;;;;;;8.10;5.95;;;;;;;;;;5033240;28;20025;-88
2023/07/28 02:30:53;;;;;;;9.95;5.93;;;;;;;;;;5031785;28;20032;-89
2023/07/28 02:33:18;;;;;;;10.50;6.68;;;;;;;;;;5028350;28;20022;-88
2023/07/28 02:35:44;;;;;;;10.68;5.65;;;;;;;;;;5029404;28;20033;-89
2023/07/28 02:38:09;;;;;;;10.25;5.95;;;;;;;;;;5033059;28;20025;-88
2023/07/28 02:40:35;;;;;;;8.63;5.65;;;;;;;;;;5032823;28;20044;-89
2023/07/28 02:43:00;;;;;;;10.85;5.70;;;;;;;;;;5033022;28;20021;-88
2023/07/28 02:45:25;;;;;;;9.95;6.15;;;;;;;;;;5031471;28;20025;-88
2023/07/28 02:47:51;;;;;;;10.20;6.00;;;;;;;;;;5032895;28;20025;-88
2023/07/28 02:50:17;;;;;;;12.43;5.95;;;;;;;;;;5030817;28;20022;-87
2023/07/28 02:52:42;;;;;;;9.75;5.75;;;;;;;;;;5032907;28;20021;-88
2023/07/28 02:55:08;;;;;;;13.93;6.75;;;;;;;;;;5031486;28;20032;-88
2023/07/28 02:57:33;;;;;;;7.68;4.80;;;;;;;;;;5031513;28;20017;-87
2023/07/28 02:59:59;;;;;;;11.93;6.40;;;;;;;;;;5032901;28;20100;-89
2023/07/28 03:02:24;;;;;;;14.10;6.32;;;;;;;;;;5032342;28;20495;-88
2023/07/28 03:04:49;;;;;;;12.63;6.32;;;;;;;;;;5031448;28;20136;-88
2023/07/28 03:07:15;;;;;;;9.20;5.50;;;;;;;;;;5027564;28;20034;-90
2023/07/28 03:09:41;;;;;;;11.55;6.03;;;;;;;;;;5026877;28;20481;-88
2023/07/28 03:12:07;;;;;;;17.70;6.60;;;;;;;;;;5032656;28;20370;-89
2023/07/28 03:14:32;;;;;;;11.80;6.82;;;;;;;;;;5031149;28;20473;-88
2023/07/28 03:16:58;;;;;;;10.65;6.63;;;;;;;;;;5032510;28;20040;-89
2023/07/28 03:19:23;;;;;;;13.95;7.15;;;;;;;;;;5031128;28;20112;-89
2023/07/28 03:21:48;;;;;;;9.85;5.40;;;;;;;;;;5032581;28;20060;-89
2023/07/28 03:24:14;;;;;;;9.77;6.03;;;;;;;;;;5028849;28;20421;-88
2023/07/28 03:26:39;;;;;;;13.88;6.43;;;;;;;;;;5031356;28;20028;-87
2023/07/28 03:29:05;;;;;;;12.10;6.68;;;;;;;;;;5030996;28;20032;-88
2023/07/28 03:31:30;;;;;;;11.90;6.30;;;;;;;;;;5031101;28;20116;-88
2023/07/28 03:33:56;;;;;;;13.55;7.03;;;;;;;;;;5031018;28;20021;-85
2023/07/28 03:36:21;;;;;;;15.57;6.95;;;;;;;;;;5030986;28;20022;-89
2023/07/28 03:38:47;;;;;;;12.85;7.30;;;;;;;;;;5030823;28;20013;-84
2023/07/28 03:41:12;;;;;;;14.40;7.50;;;;;;;;;;5028289;28;20112;-89
2023/07/28 03:43:38;;;;;;;13.70;7.53;;;;;;;;;;5032323;28;20107;-88
2023/07/28 03:46:04;;;;;;;15.55;8.07;;;;;;;;;;5032230;28;20084;-86
2023/07/28 03:48:29;;;;;;;14.23;7.93;;;;;;;;;;5030753;28;20075;-87
2023/07/28 03:50:54;;;;;;;16.88;8.00;;;;;;;;;;5032200;28;20032;-87
2023/07/28 03:53:20;;;;;;;18.10;7.97;;;;;;;;;;5032286;28;20021;-88
2023/07/28 03:55:45;;;;;;;13.23;8.10;;;;;;;;;;5030855;28;20409;-88
2023/07/28 03:58:11;;;;;;;16.88;8.77;;;;;;;;;;5028601;28;20386;-88
2023/07/28 04:00:36;;;;;;;14.00;8.38;;;;;;;;;;5031774;28;20022;-88
2023/07/28 04:03:01;;;;;;;15.10;8.50;;;;;;;;;;5030873;28;20033;-89
2023/07/28 04:05:27;;;;;;;18.40;8.98;;;;;;;;;;5034057;28;20100;-89
2023/07/28 04:07:52;;;;;;;20.25;9.80;;;;;;;;;;5035813;28;20049;-88
2023/07/28 04:10:18;;;;;;;17.92;9.40;;;;;;;;;;5035667;28;20040;-89
2023/07/28 04:12:43;;;;;;;21.02;9.80;;;;;;;;;;5035771;28;20052;-89
2023/07/28 04:15:09;;;;;;;18.58;9.73;;;;;;;;;;5032574;28;20056;-86
2023/07/28 04:17:34;;;;;;;19.63;9.65;;;;;;;;;;5013008;28;20037;-89
2023/07/28 04:20:00;;;;;;;19.55;9.52;;;;;;;;;;5034378;28;20112;-88
2023/07/28 04:22:27;;;;;;;17.83;9.70;;;;;;;;;;5034348;28;20092;-88
2023/07/28 04:24:53;;;;;;;18.15;9.73;;;;;;;;;;5035512;28;20488;-88
2023/07/28 04:27:19;;;;;;;18.58;10.15;;;;;;;;;;5034402;28;20508;-89
2023/07/28 04:29:44;;;;;;;18.70;9.55;;;;;;;;;;5034027;28;20021;-88
2023/07/28 04:32:10;;;;;;;17.38;9.98;;;;;;;;;;5031454;28;20109;-89
2023/07/28 04:34:35;;;;;;;17.02;9.52;;;;;;;;;;5034366;28;20029;-89
2023/07/28 04:37:01;;;;;;;21.80;10.02;;;;;;;;;;5034105;28;20044;-89
2023/07/28 04:39:26;;;;;;;18.92;9.73;;;;;;;;;;5034061;28;20135;-89
2023/07/28 04:41:52;;;;;;;17.52;9.98;;;;;;;;;;5035252;28;20025;-89
2023/07/28 04:44:18;;;;;;;18.45;10.60;;;;;;;;;;5033884;28;20091;-89
2023/07/28 04:46:43;;;;;;;17.17;9.70;;;;;;;;;;5035246;28;20018;-89
2023/07/28 04:49:09;;;;;;;18.38;9.63;;;;;;;;;;5033600;28;20025;-89
2023/07/28 04:51:34;;;;;;;17.50;9.60;;;;;;;;;;5033852;28;20040;-89
2023/07/28 04:53:59;;;;;;;17.40;9.23;;;;;;;;;;5035015;28;20124;-88
2023/07/28 04:56:25;;;;;;;17.50;9.00;;;;;;;;;;5036711;28;20041;-89
2023/07/28 04:58:50;;;;;;;18.77;9.80;;;;;;;;;;5035174;28;20033;-87
2023/07/28 05:01:16;;;;;;;17.50;9.38;;;;;;;;;;5033749;28;20059;-87
2023/07/28 05:03:41;;;;;;;23.83;10.43;;;;;;;;;;5033435;28;20045;-88
2023/07/28 05:06:06;;;;;;;15.77;9.57;;;;;;;;;;5032717;28;20464;-89
2023/07/28 05:08:32;;;;;;;16.10;9.48;;;;;;;;;;5033677;28;20036;-89
2023/07/28 05:10:57;;;;;;;17.38;9.73;;;;;;;;;;5034764;28;20022;-88
2023/07/28 05:13:23;;;;;;;18.83;10.35;;;;;;;;;;5034759;28;20025;-89
2023/07/28 05:15:48;;;;;;;18.38;10.13;;;;;;;;;;5033721;28;20482;-88
2023/07/28 05:18:14;;;;;;;19.80;10.32;;;;;;;;;;5033114;28;20104;-88
2023/07/28 05:20:39;;;;;;;23.50;10.45;;;;;;;;;;5034440;28;20022;-88
2023/07/28 05:23:04;;;;;;;22.88;11.00;;;;;;;;;;5032518;28;20102;-88
2023/07/28 05:25:30;;;;;;;17.63;9.95;;;;;;;;;;5034998;28;20428;-87
2023/07/28 05:27:55;;;;;;;19.33;10.40;;;;;;;;;;5033168;28;20055;-88
2023/07/28 05:30:21;;;;;;;21.52;11.05;;;;;;;;;;5033289;28;20120;-89
2023/07/28 05:32:47;;;;;;;19.75;10.27;;;;;;;;;;5033113;28;20040;-88
2023/07/28 05:35:13;;;;;;;24.88;10.73;;;;;;;;;;5032942;28;20512;-89
2023/07/28 05:37:38;;;;;;;22.27;11.02;;;;;;;;;;5034394;28;20053;-89
2023/07/28 05:40:05;;;;;;;21.10;10.98;;;;;;;;;;5031544;28;20546;-88
2023/07/28 05:42:30;;;;;;;23.27;11.38;;;;;;;;;;5032808;28;20527;-89
2023/07/28 05:44:55;;;;;;;24.02;12.38;;;;;;;;;;5032870;28;20115;-89
2023/07/28 05:47:21;;;;;;;25.40;11.95;;;;;;;;;;5012918;28;20030;-89
2023/07/28 05:49:46;;;;;;;22.10;12.00;;;;;;;;;;5032789;28;20386;-89
2023/07/28 05:52:12;;;;;;;26.27;12.80;;;;;;;;;;5032753;28;20028;-90
2023/07/28 05:54:37;;;;;;;24.08;12.32;;;;;;;;;;5032970;28;20032;-90
2023/07/28 05:57:03;;;;;;;19.95;10.77;;;;;;;;;;5031522;28;20033;-89
2023/07/28 05:59:29;;;;;;;20.98;10.38;;;;;;;;;;5030568;28;20401;-88
2023/07/28 06:01:55;;;;;;;20.85;11.25;;;;;;;;;;5033676;28;20021;-87
2023/07/28 06:04:20;;;;;;;19.48;11.02;;;;;;;;;;5033953;28;20021;-89
2023/07/28 06:06:46;;;;;;;20.90;11.55;;;;;;;;;;5033528;28;20417;-89
2023/07/28 06:09:11;;;;;;;18.80;10.52;;;;;;;;;;5033590;28;20063;-89
2023/07/28 06:11:37;;;;;;;18.00;10.25;;;;;;;;;;5033572;28;20071;-89
2023/07/28 06:14:03;;;;;;;18.67;10.48;;;;;;;;;;5031988;28;20026;-89
2023/07/28 06:16:28;;;;;;;19.52;10.88;;;;;;;;;;5032320;28;20029;-89
2023/07/28 06:18:53;;;;;;;18.15;10.18;;;;;;;;;;5033495;28;20026;-90
2023/07/28 06:21:19;;;;;;;16.33;10.10;;;;;;;;;;5032133;28;20029;-89
2023/07/28 06:23:44;;;;;;;18.65;10.55;;;;;;;;;;5032247;28;20021;-88
2023/07/28 06:26:10;;;;;;;16.92;9.88;;;;;;;;;;5033291;28;20017;-89
2023/07/28 06:28:37;;;;;;;19.55;10.48;;;;;;;;;;5033007;28;20057;-89
2023/07/28 06:31:02;;;;;;;20.25;10.48;;;;;;;;;;5030692;28;20108;-90
2023/07/28 06:33:28;;;;;;;20.45;10.85;;;;;;;;;;5030080;28;20500;-89
2023/07/28 06:35:54;;;;;;;18.92;10.27;;;;;;;;;;5033260;28;20034;-89
2023/07/28 06:38:19;;;;;;;19.20;10.23;;;;;;;;;;5031695;28;20021;-89
2023/07/28 06:40:45;;;;;;;18.67;10.55;;;;;;;;;;5032886;28;20017;-88
2023/07/28 06:43:10;;;;;;;19.35;10.20;;;;;;;;;;5032053;28;20051;-88
2023/07/28 06:45:36;;;;;;;18.65;9.35;;;;;;;;;;5032951;28;20022;-88
2023/07/28 06:48:01;;;;;;;18.80;10.10;;;;;;;;;;5029767;28;20033;-89
2023/07/28 06:50:27;;;;;;;18.92;9.82;;;;;;;;;;5030413;28;20067;-90
2023/07/28 06:52:52;;;;;;;16.02;9.27;;;;;;;;;;5033345;28;20026;-89
2023/07/28 06:55:21;;;;;;;17.85;10.02;;;;;;;;;;5031748;28;20477;-90
2023/07/28 06:57:47;;;;;;;16.23;9.77;;;;;;;;;;5032916;28;20084;-89
2023/07/28 07:00:14;;;;;;;17.90;10.02;;;;;;;;;;5031791;28;20017;-87
2023/07/28 07:02:40;;;;;;;19.23;10.20;;;;;;;;;;5021433;28;20539;-90
2023/07/28 07:05:06;;;;;;;19.70;10.13;;;;;;;;;;5031048;28;20026;-89
2023/07/28 07:07:32;;;;;;;19.38;10.57;;;;;;;;;;5032619;28;20112;-90
2023/07/28 07:09:57;;;;;;;15.93;9.73;;;;;;;;;;5031405;28;20117;-89
2023/07/28 07:12:23;;;;;;;18.25;9.48;;;;;;;;;;5032957;28;20017;-90
2023/07/28 07:14:48;;;;;;;20.23;10.05;;;;;;;;;;5032630;28;20033;-87
2023/07/28 07:17:14;;;;;;;18.00;10.02;;;;;;;;;;5031404;28;20032;-89
2023/07/28 07:19:39;;;;;;;18.40;10.40;;;;;;;;;;5031425;28;20026;-88
2023/07/28 07:22:05;;;;;;;19.33;9.95;;;;;;;;;;5028782;28;20027;-90
2023/07/28 07:24:31;;;;;;;17.60;9.65;;;;;;;;;;5029260;28;20017;-90
2023/07/28 07:26:56;;;;;;;18.15;9.65;;;;;;;;;;5031307;28;20020;-88
2023/07/28 07:29:21;;;;;;;16.92;9.93;;;;;;;;;;5030793;28;20062;-89
2023/07/28 07:31:47;;;;;;;21.52;10.18;;;;;;;;;;5032794;28;20029;-90
2023/07/28 07:34:12;;;;;;;16.42;9.18;;;;;;;;;;5032239;28;20034;-88
2023/07/28 07:36:39;;;;;;;16.30;9.25;;;;;;;;;;5032408;28;20022;-86
2023/07/28 07:39:05;;;;;;;13.77;9.30;;;;;;;;;;5028264;28;20056;-89
2023/07/28 07:41:30;;;;;;;16.33;9.13;;;;;;;;;;5035318;28;20022;-89
2023/07/28 07:43:56;;;;;;;14.38;9.05;;;;;;;;;;5036352;28;20032;-89
2023/07/28 07:46:22;;;;;;;18.10;8.90;;;;;;;;;;5036619;28;20330;-90
2023/07/28 07:48:48;;;;;;;16.80;9.75;;;;;;;;;;5035318;28;20057;-89
2023/07/28 07:51:15;;;;;;;16.83;9.75;;;;;;;;;;5035010;28;20060;-88
2023/07/28 07:53:40;;;;;;;16.70;9.57;;;;;;;;;;5036612;28;20041;-90
2023/07/28 07:56:07;;;;;;;16.17;9.75;;;;;;;;;;5034261;28;20489;-89
2023/07/28 07:58:33;;;;;;;18.65;9.55;;;;;;;;;;5040276;28;20025;-90
2023/07/28 08:00:59;;;;;;;17.30;9.40;;;;;;;;;;5035487;28;20056;-89
2023/07/28 08:03:24;;;;;;;16.90;9.50;;;;;;;;;;5034563;28;20056;-90
2023/07/28 08:05:51;;;;;;;16.88;10.10;;;;;;;;;;5034640;28;20076;-89
2023/07/28 08:08:17;;;;;;;20.23;10.77;;;;;;;;;;5036018;28;20036;-89
2023/07/28 08:10:43;;;;;;;18.83;10.32;;;;;;;;;;5035075;28;20040;-90
2023/07/28 08:13:08;;;;;;;19.80;11.32;;;;;;;;;;5035644;28;20087;-90
2023/07/28 08:15:34;;;;;;;18.02;10.25;;;;;;;;;;5035328;28;20037;-89
2023/07/28 08:17:59;;;;;;;18.25;10.77;;;;;;;;;;5034979;28;20091;-90
2023/07/28 08:20:25;;;;;;;18.88;11.10;;;;;;;;;;5034425;28;20037;-90
2023/07/28 08:22:50;;;;;;;20.17;11.38;;;;;;;;;;5034541;28;20112;-89
2023/07/28 08:25:16;;;;;;;18.73;10.93;;;;;;;;;;5035941;28;20024;-88
2023/07/28 08:27:41;;;;;;;20.98;11.25;;;;;;;;;;5034808;28;20022;-87
2023/07/28 08:30:07;;;;;;;19.77;11.20;;;;;;;;;;5031362;28;20068;-85
2023/07/28 08:32:33;;;;;;;22.85;12.40;;;;;;;;;;5035707;28;20102;-90
2023/07/28 08:34:59;;;;;;;19.55;10.48;;;;;;;;;;5034264;28;20033;-89
2023/07/28 08:37:24;;;;;;;26.10;11.48;;;;;;;;;;5034488;28;20100;-89
2023/07/28 08:39:49;;;;;;;19.08;10.60;;;;;;;;;;5035307;28;20028;-90
2023/07/28 08:42:15;;;;;;;15.98;9.73;;;;;;;;;;5034319;28;20025;-90
2023/07/28 08:44:41;;;;;;;19.27;9.95;;;;;;;;;;5035444;28;20028;-90
2023/07/28 08:47:07;;;;;;;18.55;9.95;;;;;;;;;;5033517;28;20503;-89
2023/07/28 08:49:35;;;;;;;18.17;10.55;;;;;;;;;;5034288;28;20116;-89
2023/07/28 08:52:01;;;;;;;20.67;10.98;;;;;;;;;;5033999;28;20029;-90
2023/07/28 08:54:27;;;;;;;17.63;10.52;;;;;;;;;;5035165;28;20031;-90
2023/07/28 08:56:53;;;;;;;23.88;11.23;;;;;;;;;;5035170;28;20087;-88
2023/07/28 08:59:25;;;;;;;20.88;10.82;;;;;;;;;;5035217;28;20025;-90
2023/07/28 09:01:51;;;;;;;20.33;10.85;;;;;;;;;;5033762;28;20025;-89
2023/07/28 09:04:16;;;;;;;17.15;10.38;;;;;;;;;;5029541;28;20029;-88
2023/07/28 09:06:45;;;;;;;23.00;11.52;;;;;;;;;;5030689;28;20029;-88
2023/07/28 09:09:11;;;;;;;19.45;10.95;;;;;;;;;;5035065;28;20025;-90
2023/07/28 09:11:53;;;;;;;21.77;10.85;;;;;;;;;;5034961;28;20497;-90
2023/07/28 09:14:21;;;;;;;19.83;11.17;;;;;;;;;;5026919;28;20117;-89
2023/07/28 09:16:47;;;;;;;18.45;11.13;;;;;;;;;;5034675;28;20030;-90
2023/07/28 09:19:13;;;;;;;19.00;10.80;;;;;;;;;;5034863;28;20029;-89
2023/07/28 09:21:41;;;;;;;18.05;10.65;;;;;;;;;;5032411;28;20606;-90
2023/07/28 09:24:10;;;;;;;17.02;10.75;;;;;;;;;;5035038;28;20025;-89
2023/07/28 09:26:38;;;;;;;18.92;10.77;;;;;;;;;;5032203;28;20496;-89
2023/07/28 09:29:23;;;;;;;19.25;10.40;;;;;;;;;;5027693;28;20615;-89
2023/07/28 09:31:49;;;;;;;15.90;9.90;;;;;;;;;;5034503;28;20030;-90
2023/07/28 09:34:26;;;;;;;14.40;9.27;;;;;;;;;;5033864;28;20029;-89
2023/07/28 09:36:59;;;;;;;18.02;10.10;;;;;;;;;;5033632;28;20030;-90
2023/07/28 09:39:25;;;;;;;17.90;9.73;;;;;;;;;;5027313;28;20108;-89
2023/07/28 09:41:51;;;;;;;17.00;10.18;;;;;;;;;;5036892;28;20083;-90
2023/07/28 09:44:17;;;;;;;17.20;10.38;;;;;;;;;;5032863;28;20788;-88
2023/07/28 09:46:53;;;;;;;16.00;9.40;;;;;;;;;;5033527;28;20029;-90
2023/07/28 09:49:34;;;;;;;18.50;9.90;;;;;;;;;;5029726;28;20026;-91
2023/07/28 09:52:04;;;;;;;16.75;9.38;;;;;;;;;;5029043;28;20026;-90
2023/07/28 09:54:33;;;;;;;14.40;8.63;;;;;;;;;;5034629;28;20022;-90
2023/07/28 09:56:59;;;;;;;13.75;8.32;;;;;;;;;;5033369;28;20155;-89
2023/07/28 09:59:41;;;;;;;15.90;8.82;;;;;;;;;;5018049;28;20021;-90
2023/07/28 10:02:08;;;;;;;13.95;7.85;;;;;;;;;;5035744;28;20433;-90
2023/07/28 10:04:34;;;;;;;13.43;8.32;;;;;;;;;;5034311;28;20033;-90
2023/07/28 10:07:01;;;;;;;14.15;8.18;;;;;;;;;;5018492;28;20102;-90
2023/07/28 10:09:29;;;;;;;12.73;8.00;;;;;;;;;;5035314;28;20033;-90
2023/07/28 10:11:55;;;;;;;12.10;8.02;;;;;;;;;;5034555;28;20021;-90
2023/07/28 10:14:31;;;;;;;13.75;8.27;;;;;;;;;;5033107;28;20366;-90
2023/07/28 10:16:58;;;;;;;13.10;8.38;;;;;;;;;;5028248;28;20493;-90
2023/07/28 10:19:34;;;;;;;14.00;9.23;;;;;;;;;;5034985;28;20488;-90
2023/07/28 10:22:11;;;;;;;13.38;8.63;;;;;;;;;;5029599;28;20048;-90
2023/07/28 10:24:56;;;;;;;13.93;8.30;;;;;;;;;;5034911;28;20108;-90
2023/07/28 10:27:46;;;;;;;12.70;8.43;;;;;;;;;;5036871;28;20543;-91
2023/07/28 10:30:13;;;;;;;13.52;8.30;;;;;;;;;;5020722;28;20037;-88
2023/07/28 10:32:50;;;;;;;10.88;7.38;;;;;;;;;;5037202;28;20033;-88
2023/07/28 10:35:26;;;;;;;14.10;7.70;;;;;;;;;;5039318;28;20049;-90
2023/07/28 10:37:55;;;;;;;13.13;8.80;;;;;;;;;;5038507;28;20513;-88
2023/07/28 10:40:38;;;;;;;13.35;8.65;;;;;;;;;;5041947;28;20362;-90
2023/07/28 10:43:07;;;;;;;12.30;8.25;;;;;;;;;;5033984;28;20017;-91
2023/07/28 10:45:33;;;;;;;13.93;9.23;;;;;;;;;;5036340;28;20032;-91
2023/07/28 10:48:00;;;;;;;13.40;9.07;;;;;;;;;;5038647;28;20037;-90
2023/07/28 10:50:30;;;;;;;11.88;8.23;;;;;;;;;;5040584;28;20053;-91
2023/07/28 10:52:56;;;;;;;13.40;8.18;;;;;;;;;;5041634;28;20021;-90
2023/07/28 10:55:24;;;;;;;11.98;8.50;;;;;;;;;;5044322;28;20022;-91
2023/07/28 10:57:51;;;;;;;11.50;7.80;;;;;;;;;;5041356;28;20492;-90
2023/07/28 11:00:19;;;;;;;14.30;7.93;;;;;;;;;;5041391;28;20022;-88
2023/07/28 11:03:02;;;;;;;14.23;8.15;;;;;;;;;;5041325;28;20022;-89
2023/07/28 11:05:29;;;;;;;11.75;7.90;;;;;;;;;;5040194;28;20022;-90
2023/07/28 11:07:56;;;;;;;11.10;7.47;;;;;;;;;;5041578;28;20036;-91
2023/07/28 11:10:23;;;;;;;11.70;7.63;;;;;;;;;;5041350;28;20076;-91
2023/07/28 11:12:51;;;;;;;12.23;7.50;;;;;;;;;;5039130;28;20485;-90
2023/07/28 11:15:18;;;;;;;12.25;7.00;;;;;;;;;;5040599;28;20056;-87
2023/07/28 11:17:46;;;;;;;11.57;7.55;;;;;;;;;;5042400;28;20026;-90
2023/07/28 11:20:18;;;;;;;12.43;7.32;;;;;;;;;;5043088;28;20056;-91
2023/07/28 11:22:53;;;;;;;10.68;7.05;;;;;;;;;;5042861;28;20014;-91
2023/07/28 11:25:18;;;;;;;12.07;8.10;;;;;;;;;;5044665;28;20737;-89
2023/07/28 11:27:47;;;;;;;13.18;8.52;;;;;;;;;;5046792;28;20025;-91
2023/07/28 11:30:15;;;;;;;12.80;9.07;;;;;;;;;;5049358;28;20477;-91
2023/07/28 11:32:43;;;;;;;12.27;8.88;;;;;;;;;;5045080;28;20096;-90
2023/07/28 11:35:10;;;;;;;13.52;9.15;;;;;;;;;;5041660;28;20104;-91
2023/07/28 11:37:37;;;;;;;14.45;9.00;;;;;;;;;;5046485;28;20077;-91
2023/07/28 11:40:06;;;;;;;14.25;9.70;;;;;;;;;;5045571;28;20025;-91
2023/07/28 11:42:37;;;;;;;16.30;9.45;;;;;;;;;;5042377;28;20036;-91
2023/07/28 11:45:03;;;;;;;13.63;9.63;;;;;;;;;;5043540;28;20025;-89
2023/07/28 11:47:30;;;;;;;14.95;10.48;;;;;;;;;;5042469;28;20083;-90
2023/07/28 11:49:58;;;;;;;12.50;9.35;;;;;;;;;;5043209;28;20021;-90
2023/07/28 11:52:44;;;;;;;14.05;9.63;;;;;;;;;;5038008;28;20059;-89
2023/07/28 11:55:09;;;;;;;12.63;8.93;;;;;;;;;;5035628;28;20041;-90
2023/07/28 11:57:34;;;;;;;13.05;8.48;;;;;;;;;;5037904;28;20036;-90
2023/07/28 12:00:00;;;;;;;12.85;8.70;;;;;;;;;;5023536;28;20025;-91
2023/07/28 12:02:27;;;;;;;13.55;9.32;;;;;;;;;;5041338;28;20072;-92
2023/07/28 12:04:54;;;;;;;17.17;9.95;;;;;;;;;;5033863;28;20017;-90
2023/07/28 12:07:29;;;;;;;14.98;10.40;;;;;;;;;;5038857;28;20112;-90
2023/07/28 12:10:00;;;;;;;12.27;9.40;;;;;;;;;;5040505;28;20465;-89
2023/07/28 12:12:30;;;;;;;15.88;9.15;;;;;;;;;;5038210;28;20028;-90
2023/07/28 12:15:04;;;;;;;13.43;9.20;;;;;;;;;;5036525;28;20028;-89
2023/07/28 12:17:30;;;;;;;14.05;9.23;;;;;;;;;;5035247;28;20060;-90
2023/07/28 12:20:15;;;;;;;13.52;9.63;;;;;;;;;;5037316;28;20032;-90
2023/07/28 12:22:41;;;;;;;13.30;9.00;;;;;;;;;;5037711;28;20052;-89
2023/07/28 12:25:08;;;;;;;12.82;8.93;;;;;;;;;;5039222;28;20033;-90
2023/07/28 12:27:34;;;;;;;16.27;8.68;;;;;;;;;;5039684;28;20025;-89
2023/07/28 12:30:00;;;;;;;11.45;7.55;;;;;;;;;;5038774;28;20149;-89
2023/07/28 12:32:26;;;;;;;13.07;8.50;;;;;;;;;;5038725;28;20029;-90
2023/07/28 12:34:52;;;;;;;12.23;7.78;;;;;;;;;;5038399;28;20059;-89
2023/07/28 12:37:20;;;;;;;12.90;8.30;;;;;;;;;;5036967;28;20454;-89
2023/07/28 12:39:46;;;;;;;15.88;7.65;;;;;;;;;;5037179;28;20017;-87
2023/07/28 12:42:12;;;;;;;13.23;8.40;;;;;;;;;;5038481;28;20076;-90
2023/07/28 12:44:38;;;;;;;13.45;7.60;;;;;;;;;;5027308;28;20469;-89
2023/07/28 12:47:04;;;;;;;14.32;7.78;;;;;;;;;;5035874;28;20049;-90
2023/07/28 12:49:30;;;;;;;12.23;7.82;;;;;;;;;;5036501;28;20492;-90
2023/07/28 12:51:56;;;;;;;13.05;7.38;;;;;;;;;;5037078;28;20040;-90
2023/07/28 12:54:23;;;;;;;13.98;7.63;;;;;;;;;;5038477;28;20380;-89
2023/07/28 12:56:49;;;;;;;12.57;7.05;;;;;;;;;;5034975;28;20501;-87
2023/07/28 12:59:15;;;;;;;10.57;7.28;;;;;;;;;;5036102;28;20021;-90
2023/07/28 13:01:40;;;;;;;11.45;7.50;;;;;;;;;;5036330;28;20026;-88
2023/07/28 13:04:06;;;;;;;12.05;7.47;;;;;;;;;;5035192;28;20071;-89
2023/07/28 13:06:32;;;;;;;11.57;6.88;;;;;;;;;;5035699;28;20117;-88
2023/07/28 13:08:57;;;;;;;12.80;7.20;;;;;;;;;;5037027;28;20025;-89
2023/07/28 13:11:23;;;;;;;12.98;6.75;;;;;;;;;;5064342;28;20018;-89
2023/07/28 13:13:48;;;;;;;15.93;6.72;;;;;;;;;;5036060;28;20480;-89
2023/07/28 13:16:14;;;;;;;11.23;6.97;;;;;;;;;;5035660;28;20393;-89
2023/07/28 13:18:40;;;;;;;10.93;6.63;;;;;;;;;;5036149;28;20498;-89
2023/07/28 13:21:06;;;;;;;11.60;7.18;;;;;;;;;;5034499;28;20033;-89
2023/07/28 13:23:32;;;;;;;16.75;7.45;;;;;;;;;;5035404;28;20022;-89
2023/07/28 13:25:57;;;;;;;11.20;6.80;;;;;;;;;;5034414;28;20024;-89
2023/07/28 13:28:23;;;;;;;12.88;6.65;;;;;;;;;;5033958;28;20022;-89
2023/07/28 13:30:49;;;;;;;10.18;7.18;;;;;;;;;;5033687;28;20021;-87
2023/07/28 13:33:14;;;;;;;11.63;7.20;;;;;;;;;;5035042;28;20393;-89
2023/07/28 13:35:40;;;;;;;11.50;6.97;;;;;;;;;;5033478;28;20021;-87
2023/07/28 13:38:05;;;;;;;13.55;7.78;;;;;;;;;;5030986;28;20066;-87
2023/07/28 13:40:31;;;;;;;8.27;5.60;;;;;;;;;;5034388;28;20034;-86
2023/07/28 13:42:56;;;;;;;10.10;6.90;;;;;;;;;;5033549;28;20035;-88
2023/07/28 13:45:22;;;;;;;9.90;6.78;;;;;;;;;;5035077;28;20029;-87
2023/07/28 13:47:47;;;;;;;10.48;6.88;;;;;;;;;;5034528;28;20042;-88
2023/07/28 13:50:13;;;;;;;8.25;6.13;;;;;;;;;;5035618;28;20017;-87
2023/07/28 13:52:38;;;;;;;9.73;6.63;;;;;;;;;;5035334;28;20071;-88
2023/07/28 13:55:04;;;;;;;10.63;6.85;;;;;;;;;;5033126;28;20025;-88
2023/07/28 13:57:31;;;;;;;13.35;7.68;;;;;;;;;;5034048;28;20036;-88
2023/07/28 13:59:57;;;;;;;11.07;7.97;;;;;;;;;;5034165;28;20121;-89
2023/07/28 14:02:22;;;;;;;15.95;10.05;;;;;;;;;;5034732;28;20061;-88
2023/07/28 14:04:48;;;;;;;13.70;10.25;;;;;;;;;;5034293;28;20021;-89
2023/07/28 14:07:13;;;;;;;13.10;10.63;;;;;;;;;;5033067;28;20026;-86
2023/07/28 14:09:39;;;;;;;13.73;10.40;;;;;;;;;;5033070;28;20033;-88
2023/07/28 14:12:04;;;;;;;18.08;10.93;;;;;;;;;;5028529;28;20108;-87
2023/07/28 14:14:31;;;;;;;12.60;9.48;;;;;;;;;;5033662;28;20127;-88
2023/07/28 14:16:56;;;;;;;12.13;7.97;;;;;;;;;;5033615;28;20030;-89
2023/07/28 14:19:22;;;;;;;10.98;8.00;;;;;;;;;;5033802;28;20029;-88
2023/07/28 14:21:47;;;;;;;9.43;6.95;;;;;;;;;;5034262;28;20069;-88
2023/07/28 14:24:13;;;;;;;8.63;6.70;;;;;;;;;;5033956;28;20032;-88
2023/07/28 14:26:38;;;;;;;8.32;6.78;;;;;;;;;;5033065;28;20035;-88